sensor_id;sensor_type;location;lat;lon;timestamp;temperature;humidity
29687;DHT22;16599;47.078;15.536;2022-11-14T00:01:10;6.70;99.90
29687;DHT22;16599;47.078;15.536;2022-11-14T00:03:38;6.80;99.90
29687;DHT22;16599;47.078;15.536;2022-11-14T00:06:05;6.80;99.90
29687;DHT22;16599;47.078;15.536;2022-11-14T00:08:33;6.80;99.90
29687;DHT22;16599;47.078;15.536;2022-11-14T00:11:00;6.80;99.90
29687;DHT22;16599;47.078;15.536;2022-11-14T00:13:26;6.80;99.90
29687;DHT22;16599;47.078;15.536;2022-11-14T00:15:53;6.70;99.90
29687;DHT22;16599;47.078;15.536;2022-11-14T00:18:20;6.70;99.90
29687;DHT22;16599;47.078;15.536;2022-11-14T00:20:48;6.80;99.90
29687;DHT22;16599;47.078;15.536;2022-11-14T00:23:15;6.70;99.90
29687;DHT22;16599;47.078;15.536;2022-11-14T00:25:43;6.70;99.90
29687;DHT22;16599;47.078;15.536;2022-11-14T00:28:10;6.70;99.90
29687;DHT22;16599;47.078;15.536;2022-11-14T00:30:37;6.60;99.90
29687;DHT22;16599;47.078;15.536;2022-11-14T00:33:04;6.50;99.90
29687;DHT22;16599;47.078;15.536;2022-11-14T00:35:31;6.50;99.90
29687;DHT22;16599;47.078;15.536;2022-11-14T00:37:58;6.50;99.90
29687;DHT22;16599;47.078;15.536;2022-11-14T00:40:24;6.50;99.90
29687;DHT22;16599;47.078;15.536;2022-11-14T00:42:51;6.50;99.90
29687;DHT22;16599;47.078;15.536;2022-11-14T00:45:18;6.30;99.90
29687;DHT22;16599;47.078;15.536;2022-11-14T00:47:45;6.30;99.90
29687;DHT22;16599;47.078;15.536;2022-11-14T00:50:12;6.30;99.90
29687;DHT22;16599;47.078;15.536;2022-11-14T00:52:39;6.20;99.90
29687;DHT22;16599;47.078;15.536;2022-11-14T00:55:06;6.30;99.90
29687;DHT22;16599;47.078;15.536;2022-11-14T00:57:33;6.30;99.90
29687;DHT22;16599;47.078;15.536;2022-11-14T01:00:00;6.40;99.90
29687;DHT22;16599;47.078;15.536;2022-11-14T01:02:27;6.40;99.90
29687;DHT22;16599;47.078;15.536;2022-11-14T01:04:53;6.30;99.90
29687;DHT22;16599;47.078;15.536;2022-11-14T01:07:20;6.40;99.90
29687;DHT22;16599;47.078;15.536;2022-11-14T01:09:47;6.40;99.90
29687;DHT22;16599;47.078;15.536;2022-11-14T01:12:14;6.40;99.90
29687;DHT22;16599;47.078;15.536;2022-11-14T01:14:40;6.40;99.90
29687;DHT22;16599;47.078;15.536;2022-11-14T01:17:07;6.50;99.90
29687;DHT22;16599;47.078;15.536;2022-11-14T01:19:34;6.50;99.90
29687;DHT22;16599;47.078;15.536;2022-11-14T01:22:01;6.40;99.90
29687;DHT22;16599;47.078;15.536;2022-11-14T01:24:32;6.40;99.90
29687;DHT22;16599;47.078;15.536;2022-11-14T01:27:00;6.50;99.90
29687;DHT22;16599;47.078;15.536;2022-11-14T01:29:27;6.50;99.90
29687;DHT22;16599;47.078;15.536;2022-11-14T01:31:54;6.50;99.90
29687;DHT22;16599;47.078;15.536;2022-11-14T01:34:22;6.60;99.90
29687;DHT22;16599;47.078;15.536;2022-11-14T01:36:49;6.50;99.90
29687;DHT22;16599;47.078;15.536;2022-11-14T01:39:16;6.60;99.90
29687;DHT22;16599;47.078;15.536;2022-11-14T01:41:43;6.60;99.90
29687;DHT22;16599;47.078;15.536;2022-11-14T01:44:15;6.60;99.90
29687;DHT22;16599;47.078;15.536;2022-11-14T01:46:45;6.60;99.90
29687;DHT22;16599;47.078;15.536;2022-11-14T01:49:20;6.60;99.90
29687;DHT22;16599;47.078;15.536;2022-11-14T01:51:50;6.70;99.90
29687;DHT22;16599;47.078;15.536;2022-11-14T01:54:23;6.60;99.90
29687;DHT22;16599;47.078;15.536;2022-11-14T01:56:55;6.60;99.90
29687;DHT22;16599;47.078;15.536;2022-11-14T01:59:24;6.60;99.90
29687;DHT22;16599;47.078;15.536;2022-11-14T02:01:52;6.60;99.90
29687;DHT22;16599;47.078;15.536;2022-11-14T02:04:32;6.50;99.90
29687;DHT22;16599;47.078;15.536;2022-11-14T02:07:02;6.50;99.90
29687;DHT22;16599;47.078;15.536;2022-11-14T02:09:33;6.40;99.90
29687;DHT22;16599;47.078;15.536;2022-11-14T02:12:03;6.40;99.90
29687;DHT22;16599;47.078;15.536;2022-11-14T02:14:32;6.30;99.90
29687;DHT22;16599;47.078;15.536;2022-11-14T02:16:59;6.30;99.90
29687;DHT22;16599;47.078;15.536;2022-11-14T02:19:54;6.30;99.90
29687;DHT22;16599;47.078;15.536;2022-11-14T02:22:30;6.10;99.90
29687;DHT22;16599;47.078;15.536;2022-11-14T02:24:56;5.90;99.90
29687;DHT22;16599;47.078;15.536;2022-11-14T02:27:24;5.90;99.90
29687;DHT22;16599;47.078;15.536;2022-11-14T02:29:50;5.90;99.90
29687;DHT22;16599;47.078;15.536;2022-11-14T02:32:17;5.90;99.90
29687;DHT22;16599;47.078;15.536;2022-11-14T02:34:44;5.90;99.90
29687;DHT22;16599;47.078;15.536;2022-11-14T02:37:11;6.00;99.90
29687;DHT22;16599;47.078;15.536;2022-11-14T02:39:38;6.00;99.90
29687;DHT22;16599;47.078;15.536;2022-11-14T02:42:04;6.00;99.90
29687;DHT22;16599;47.078;15.536;2022-11-14T02:44:31;5.90;99.90
29687;DHT22;16599;47.078;15.536;2022-11-14T02:46:58;6.00;99.90
29687;DHT22;16599;47.078;15.536;2022-11-14T02:49:25;6.00;99.90
29687;DHT22;16599;47.078;15.536;2022-11-14T02:51:51;6.10;99.90
29687;DHT22;16599;47.078;15.536;2022-11-14T02:54:18;6.10;99.90
29687;DHT22;16599;47.078;15.536;2022-11-14T02:56:45;6.10;99.90
29687;DHT22;16599;47.078;15.536;2022-11-14T02:59:12;6.00;99.90
29687;DHT22;16599;47.078;15.536;2022-11-14T03:01:38;5.90;99.90
29687;DHT22;16599;47.078;15.536;2022-11-14T03:04:05;6.00;99.90
29687;DHT22;16599;47.078;15.536;2022-11-14T03:06:32;6.00;99.90
29687;DHT22;16599;47.078;15.536;2022-11-14T03:08:59;6.00;99.90
29687;DHT22;16599;47.078;15.536;2022-11-14T03:11:26;5.90;99.90
29687;DHT22;16599;47.078;15.536;2022-11-14T03:13:52;5.90;99.90
29687;DHT22;16599;47.078;15.536;2022-11-14T03:16:19;6.00;99.90
29687;DHT22;16599;47.078;15.536;2022-11-14T03:18:46;6.00;99.90
29687;DHT22;16599;47.078;15.536;2022-11-14T03:21:16;6.10;99.90
29687;DHT22;16599;47.078;15.536;2022-11-14T03:23:43;6.10;99.90
29687;DHT22;16599;47.078;15.536;2022-11-14T03:26:11;6.20;99.90
29687;DHT22;16599;47.078;15.536;2022-11-14T03:28:39;6.20;99.90
29687;DHT22;16599;47.078;15.536;2022-11-14T03:31:08;6.20;99.90
29687;DHT22;16599;47.078;15.536;2022-11-14T03:33:36;6.20;99.90
29687;DHT22;16599;47.078;15.536;2022-11-14T03:36:03;6.20;99.90
29687;DHT22;16599;47.078;15.536;2022-11-14T03:38:31;6.10;99.90
29687;DHT22;16599;47.078;15.536;2022-11-14T03:40:58;6.00;99.90
29687;DHT22;16599;47.078;15.536;2022-11-14T03:43:29;5.90;99.90
29687;DHT22;16599;47.078;15.536;2022-11-14T03:45:58;5.80;99.90
29687;DHT22;16599;47.078;15.536;2022-11-14T03:48:26;5.90;99.90
29687;DHT22;16599;47.078;15.536;2022-11-14T03:50:54;5.90;99.90
29687;DHT22;16599;47.078;15.536;2022-11-14T03:53:21;6.00;99.90
29687;DHT22;16599;47.078;15.536;2022-11-14T03:55:49;5.90;99.90
29687;DHT22;16599;47.078;15.536;2022-11-14T03:58:16;5.90;99.90
29687;DHT22;16599;47.078;15.536;2022-11-14T04:00:43;5.80;99.90
29687;DHT22;16599;47.078;15.536;2022-11-14T04:03:10;5.80;99.90
29687;DHT22;16599;47.078;15.536;2022-11-14T04:05:36;5.90;99.90
29687;DHT22;16599;47.078;15.536;2022-11-14T04:08:04;6.00;99.90
29687;DHT22;16599;47.078;15.536;2022-11-14T04:10:31;6.00;99.90
29687;DHT22;16599;47.078;15.536;2022-11-14T04:12:58;5.90;99.90
29687;DHT22;16599;47.078;15.536;2022-11-14T04:15:25;5.80;99.90
29687;DHT22;16599;47.078;15.536;2022-11-14T04:17:52;5.70;99.90
29687;DHT22;16599;47.078;15.536;2022-11-14T04:20:18;5.70;99.90
29687;DHT22;16599;47.078;15.536;2022-11-14T04:22:45;5.80;99.90
29687;DHT22;16599;47.078;15.536;2022-11-14T04:25:13;5.70;99.90
29687;DHT22;16599;47.078;15.536;2022-11-14T04:27:40;5.70;99.90
29687;DHT22;16599;47.078;15.536;2022-11-14T04:30:07;5.80;99.90
29687;DHT22;16599;47.078;15.536;2022-11-14T04:32:34;5.90;99.90
29687;DHT22;16599;47.078;15.536;2022-11-14T04:35:01;6.00;99.90
29687;DHT22;16599;47.078;15.536;2022-11-14T04:37:28;5.90;99.90
29687;DHT22;16599;47.078;15.536;2022-11-14T04:39:55;5.80;99.90
29687;DHT22;16599;47.078;15.536;2022-11-14T04:42:26;5.80;99.90
29687;DHT22;16599;47.078;15.536;2022-11-14T04:44:52;5.90;99.90
29687;DHT22;16599;47.078;15.536;2022-11-14T04:47:19;5.90;99.90
29687;DHT22;16599;47.078;15.536;2022-11-14T04:49:46;6.00;99.90
29687;DHT22;16599;47.078;15.536;2022-11-14T04:52:13;6.10;99.90
29687;DHT22;16599;47.078;15.536;2022-11-14T04:54:40;6.10;99.90
29687;DHT22;16599;47.078;15.536;2022-11-14T04:57:06;6.10;99.90
29687;DHT22;16599;47.078;15.536;2022-11-14T04:59:33;6.00;99.90
29687;DHT22;16599;47.078;15.536;2022-11-14T05:02:00;6.00;99.90
29687;DHT22;16599;47.078;15.536;2022-11-14T05:04:27;6.00;99.90
29687;DHT22;16599;47.078;15.536;2022-11-14T05:06:54;6.00;99.90
29687;DHT22;16599;47.078;15.536;2022-11-14T05:09:21;6.00;99.90
29687;DHT22;16599;47.078;15.536;2022-11-14T05:11:47;6.00;99.90
29687;DHT22;16599;47.078;15.536;2022-11-14T05:14:14;6.00;99.90
29687;DHT22;16599;47.078;15.536;2022-11-14T05:16:41;6.00;99.90
29687;DHT22;16599;47.078;15.536;2022-11-14T05:19:08;6.10;99.90
29687;DHT22;16599;47.078;15.536;2022-11-14T05:21:34;6.10;99.90
29687;DHT22;16599;47.078;15.536;2022-11-14T05:24:01;6.20;99.90
29687;DHT22;16599;47.078;15.536;2022-11-14T05:26:28;6.20;99.90
29687;DHT22;16599;47.078;15.536;2022-11-14T05:28:55;6.20;99.90
29687;DHT22;16599;47.078;15.536;2022-11-14T05:31:21;6.20;99.90
29687;DHT22;16599;47.078;15.536;2022-11-14T05:33:48;6.30;99.90
29687;DHT22;16599;47.078;15.536;2022-11-14T05:36:16;6.20;99.90
29687;DHT22;16599;47.078;15.536;2022-11-14T05:38:43;6.20;99.90
29687;DHT22;16599;47.078;15.536;2022-11-14T05:41:16;6.20;99.90
29687;DHT22;16599;47.078;15.536;2022-11-14T05:43:43;6.10;99.90
29687;DHT22;16599;47.078;15.536;2022-11-14T05:46:12;6.10;99.90
29687;DHT22;16599;47.078;15.536;2022-11-14T05:48:39;6.10;99.90
29687;DHT22;16599;47.078;15.536;2022-11-14T05:51:08;6.10;99.90
29687;DHT22;16599;47.078;15.536;2022-11-14T05:53:35;6.20;99.90
29687;DHT22;16599;47.078;15.536;2022-11-14T05:56:04;6.20;99.90
29687;DHT22;16599;47.078;15.536;2022-11-14T05:58:33;6.20;99.90
29687;DHT22;16599;47.078;15.536;2022-11-14T06:01:11;6.20;99.90
29687;DHT22;16599;47.078;15.536;2022-11-14T06:03:40;6.20;99.90
29687;DHT22;16599;47.078;15.536;2022-11-14T06:06:08;6.20;99.90
29687;DHT22;16599;47.078;15.536;2022-11-14T06:11:17;6.20;99.90
29687;DHT22;16599;47.078;15.536;2022-11-14T06:13:45;6.20;99.90
29687;DHT22;16599;47.078;15.536;2022-11-14T06:16:17;6.20;99.90
29687;DHT22;16599;47.078;15.536;2022-11-14T06:18:44;6.20;99.90
29687;DHT22;16599;47.078;15.536;2022-11-14T06:21:17;6.20;99.90
29687;DHT22;16599;47.078;15.536;2022-11-14T06:23:45;6.20;99.90
29687;DHT22;16599;47.078;15.536;2022-11-14T06:26:25;6.20;99.90
29687;DHT22;16599;47.078;15.536;2022-11-14T06:28:53;6.20;99.90
29687;DHT22;16599;47.078;15.536;2022-11-14T06:31:20;6.30;99.90
29687;DHT22;16599;47.078;15.536;2022-11-14T06:33:48;6.40;99.90
29687;DHT22;16599;47.078;15.536;2022-11-14T06:36:15;6.40;99.90
29687;DHT22;16599;47.078;15.536;2022-11-14T06:38:43;6.50;99.90
29687;DHT22;16599;47.078;15.536;2022-11-14T06:41:14;6.50;99.90
29687;DHT22;16599;47.078;15.536;2022-11-14T06:43:44;6.50;99.90
29687;DHT22;16599;47.078;15.536;2022-11-14T06:46:17;6.60;99.90
29687;DHT22;16599;47.078;15.536;2022-11-14T06:48:45;6.60;99.90
29687;DHT22;16599;47.078;15.536;2022-11-14T06:51:13;6.50;99.90
29687;DHT22;16599;47.078;15.536;2022-11-14T06:53:41;6.50;99.90
29687;DHT22;16599;47.078;15.536;2022-11-14T06:56:28;6.50;99.90
29687;DHT22;16599;47.078;15.536;2022-11-14T06:58:55;6.50;99.90
29687;DHT22;16599;47.078;15.536;2022-11-14T07:01:24;6.50;99.90
29687;DHT22;16599;47.078;15.536;2022-11-14T07:03:54;6.50;99.90
29687;DHT22;16599;47.078;15.536;2022-11-14T07:06:24;6.60;99.90
29687;DHT22;16599;47.078;15.536;2022-11-14T07:08:52;6.70;99.90
29687;DHT22;16599;47.078;15.536;2022-11-14T07:11:22;6.70;99.90
29687;DHT22;16599;47.078;15.536;2022-11-14T07:13:55;6.80;99.90
29687;DHT22;16599;47.078;15.536;2022-11-14T07:16:26;6.70;99.90
29687;DHT22;16599;47.078;15.536;2022-11-14T07:18:58;6.80;99.90
29687;DHT22;16599;47.078;15.536;2022-11-14T07:21:26;6.80;99.90
29687;DHT22;16599;47.078;15.536;2022-11-14T07:23:54;6.90;99.90
29687;DHT22;16599;47.078;15.536;2022-11-14T07:26:21;7.00;99.90
29687;DHT22;16599;47.078;15.536;2022-11-14T07:28:48;7.00;99.90
29687;DHT22;16599;47.078;15.536;2022-11-14T07:31:21;7.10;99.90
29687;DHT22;16599;47.078;15.536;2022-11-14T07:33:48;7.20;99.90
29687;DHT22;16599;47.078;15.536;2022-11-14T07:36:15;7.20;99.90
29687;DHT22;16599;47.078;15.536;2022-11-14T07:38:42;7.30;99.90
29687;DHT22;16599;47.078;15.536;2022-11-14T07:41:11;7.30;99.90
29687;DHT22;16599;47.078;15.536;2022-11-14T07:43:39;7.30;99.90
29687;DHT22;16599;47.078;15.536;2022-11-14T07:46:09;7.30;99.90
29687;DHT22;16599;47.078;15.536;2022-11-14T07:48:36;7.30;99.90
29687;DHT22;16599;47.078;15.536;2022-11-14T07:51:05;7.30;99.90
29687;DHT22;16599;47.078;15.536;2022-11-14T07:53:33;7.30;99.90
29687;DHT22;16599;47.078;15.536;2022-11-14T07:56:05;7.30;99.90
29687;DHT22;16599;47.078;15.536;2022-11-14T07:58:34;7.40;99.90
29687;DHT22;16599;47.078;15.536;2022-11-14T08:01:03;7.50;99.90
29687;DHT22;16599;47.078;15.536;2022-11-14T08:03:31;7.50;99.90
29687;DHT22;16599;47.078;15.536;2022-11-14T08:06:06;7.50;99.90
29687;DHT22;16599;47.078;15.536;2022-11-14T08:08:34;7.60;99.90
29687;DHT22;16599;47.078;15.536;2022-11-14T08:11:00;7.70;99.90
29687;DHT22;16599;47.078;15.536;2022-11-14T08:13:28;7.70;99.90
29687;DHT22;16599;47.078;15.536;2022-11-14T08:16:02;7.80;99.90
29687;DHT22;16599;47.078;15.536;2022-11-14T08:18:36;7.80;99.90
29687;DHT22;16599;47.078;15.536;2022-11-14T08:21:04;7.80;99.90
29687;DHT22;16599;47.078;15.536;2022-11-14T08:23:31;7.80;99.90
29687;DHT22;16599;47.078;15.536;2022-11-14T08:25:58;7.90;99.90
29687;DHT22;16599;47.078;15.536;2022-11-14T08:28:25;7.80;99.90
29687;DHT22;16599;47.078;15.536;2022-11-14T08:30:58;7.90;99.90
29687;DHT22;16599;47.078;15.536;2022-11-14T08:33:26;7.90;99.90
29687;DHT22;16599;47.078;15.536;2022-11-14T08:35:52;8.00;99.90
29687;DHT22;16599;47.078;15.536;2022-11-14T08:38:19;7.90;99.90
29687;DHT22;16599;47.078;15.536;2022-11-14T08:40:46;7.90;99.90
29687;DHT22;16599;47.078;15.536;2022-11-14T08:43:13;8.00;99.90
29687;DHT22;16599;47.078;15.536;2022-11-14T08:45:39;8.10;99.90
29687;DHT22;16599;47.078;15.536;2022-11-14T08:48:06;8.20;99.90
29687;DHT22;16599;47.078;15.536;2022-11-14T08:50:33;8.30;99.90
29687;DHT22;16599;47.078;15.536;2022-11-14T08:53:00;8.30;99.90
29687;DHT22;16599;47.078;15.536;2022-11-14T08:55:27;8.30;99.90
29687;DHT22;16599;47.078;15.536;2022-11-14T08:57:53;8.30;99.90
29687;DHT22;16599;47.078;15.536;2022-11-14T09:00:21;8.20;99.90
29687;DHT22;16599;47.078;15.536;2022-11-14T09:02:47;8.20;99.90
29687;DHT22;16599;47.078;15.536;2022-11-14T09:05:14;8.10;99.90
29687;DHT22;16599;47.078;15.536;2022-11-14T09:07:41;8.10;99.90
29687;DHT22;16599;47.078;15.536;2022-11-14T09:10:08;8.10;99.90
29687;DHT22;16599;47.078;15.536;2022-11-14T09:12:35;8.10;99.90
29687;DHT22;16599;47.078;15.536;2022-11-14T09:15:02;8.30;99.90
29687;DHT22;16599;47.078;15.536;2022-11-14T09:17:29;8.30;99.90
29687;DHT22;16599;47.078;15.536;2022-11-14T09:19:55;8.40;99.90
29687;DHT22;16599;47.078;15.536;2022-11-14T09:22:22;8.30;99.90
29687;DHT22;16599;47.078;15.536;2022-11-14T09:24:49;8.40;99.90
29687;DHT22;16599;47.078;15.536;2022-11-14T09:27:17;8.50;99.90
29687;DHT22;16599;47.078;15.536;2022-11-14T09:29:44;8.40;99.90
29687;DHT22;16599;47.078;15.536;2022-11-14T09:32:11;8.40;99.90
29687;DHT22;16599;47.078;15.536;2022-11-14T09:34:38;8.50;99.90
29687;DHT22;16599;47.078;15.536;2022-11-14T09:37:08;8.60;99.90
29687;DHT22;16599;47.078;15.536;2022-11-14T09:39:35;8.70;99.90
29687;DHT22;16599;47.078;15.536;2022-11-14T09:45:00;9.40;99.90
29687;DHT22;16599;47.078;15.536;2022-11-14T09:47:38;9.60;99.90
29687;DHT22;16599;47.078;15.536;2022-11-14T09:52:39;9.50;99.90
29687;DHT22;16599;47.078;15.536;2022-11-14T09:55:26;9.40;99.90
29687;DHT22;16599;47.078;15.536;2022-11-14T09:58:02;9.40;99.90
29687;DHT22;16599;47.078;15.536;2022-11-14T10:00:42;9.40;99.90
29687;DHT22;16599;47.078;15.536;2022-11-14T10:06:16;9.60;99.90
29687;DHT22;16599;47.078;15.536;2022-11-14T10:14:28;9.90;99.90
29687;DHT22;16599;47.078;15.536;2022-11-14T10:17:08;10.10;99.90
29687;DHT22;16599;47.078;15.536;2022-11-14T10:25:21;10.50;99.90
29687;DHT22;16599;47.078;15.536;2022-11-14T10:33:46;10.40;99.90
29687;DHT22;16599;47.078;15.536;2022-11-14T10:39:02;10.40;99.90
29687;DHT22;16599;47.078;15.536;2022-11-14T10:41:31;10.50;99.90
29687;DHT22;16599;47.078;15.536;2022-11-14T10:44:24;10.70;99.90
29687;DHT22;16599;47.078;15.536;2022-11-14T10:47:00;10.80;99.90
29687;DHT22;16599;47.078;15.536;2022-11-14T10:49:30;10.50;99.90
29687;DHT22;16599;47.078;15.536;2022-11-14T10:52:04;10.60;99.90
29687;DHT22;16599;47.078;15.536;2022-11-14T10:54:49;10.50;99.90
29687;DHT22;16599;47.078;15.536;2022-11-14T10:57:20;10.40;99.90
29687;DHT22;16599;47.078;15.536;2022-11-14T10:59:47;10.50;99.90
29687;DHT22;16599;47.078;15.536;2022-11-14T11:02:14;10.60;99.90
29687;DHT22;16599;47.078;15.536;2022-11-14T11:04:43;11.00;99.90
29687;DHT22;16599;47.078;15.536;2022-11-14T11:09:59;11.40;99.90
29687;DHT22;16599;47.078;15.536;2022-11-14T11:12:47;11.40;99.90
29687;DHT22;16599;47.078;15.536;2022-11-14T11:15:18;11.30;99.90
29687;DHT22;16599;47.078;15.536;2022-11-14T11:18:03;11.60;99.90
29687;DHT22;16599;47.078;15.536;2022-11-14T11:20:39;11.70;99.90
29687;DHT22;16599;47.078;15.536;2022-11-14T11:25:38;11.90;99.90
29687;DHT22;16599;47.078;15.536;2022-11-14T11:28:20;11.80;99.90
29687;DHT22;16599;47.078;15.536;2022-11-14T11:30:57;10.80;99.90
29687;DHT22;16599;47.078;15.536;2022-11-14T11:33:30;10.80;99.90
29687;DHT22;16599;47.078;15.536;2022-11-14T11:36:14;10.90;99.90
29687;DHT22;16599;47.078;15.536;2022-11-14T11:38:43;10.80;99.90
29687;DHT22;16599;47.078;15.536;2022-11-14T11:41:29;11.20;99.90
29687;DHT22;16599;47.078;15.536;2022-11-14T11:44:18;11.30;99.90
29687;DHT22;16599;47.078;15.536;2022-11-14T11:46:55;11.10;99.90
29687;DHT22;16599;47.078;15.536;2022-11-14T11:52:03;11.60;99.90
29687;DHT22;16599;47.078;15.536;2022-11-14T11:54:42;12.10;99.90
29687;DHT22;16599;47.078;15.536;2022-11-14T11:57:15;12.00;99.90
29687;DHT22;16599;47.078;15.536;2022-11-14T12:00:02;12.00;99.90
29687;DHT22;16599;47.078;15.536;2022-11-14T12:02:30;11.90;99.90
29687;DHT22;16599;47.078;15.536;2022-11-14T12:04:57;11.90;99.90
29687;DHT22;16599;47.078;15.536;2022-11-14T12:07:33;12.40;99.90
29687;DHT22;16599;47.078;15.536;2022-11-14T12:10:15;12.40;99.90
29687;DHT22;16599;47.078;15.536;2022-11-14T12:32:30;12.80;99.90
29687;DHT22;16599;47.078;15.536;2022-11-14T12:34:58;12.60;99.90
29687;DHT22;16599;47.078;15.536;2022-11-14T12:37:34;12.60;99.90
29687;DHT22;16599;47.078;15.536;2022-11-14T12:40:06;12.70;99.90
29687;DHT22;16599;47.078;15.536;2022-11-14T12:42:33;12.70;99.90
29687;DHT22;16599;47.078;15.536;2022-11-14T12:45:00;12.90;99.90
29687;DHT22;16599;47.078;15.536;2022-11-14T12:47:28;12.90;99.90
29687;DHT22;16599;47.078;15.536;2022-11-14T12:49:56;12.90;99.90
29687;DHT22;16599;47.078;15.536;2022-11-14T12:52:42;12.80;99.90
29687;DHT22;16599;47.078;15.536;2022-11-14T12:58:11;12.40;99.90
29687;DHT22;16599;47.078;15.536;2022-11-14T13:03:35;12.70;99.90
29687;DHT22;16599;47.078;15.536;2022-11-14T13:06:24;12.70;99.90
29687;DHT22;16599;47.078;15.536;2022-11-14T13:11:49;12.90;99.90
29687;DHT22;16599;47.078;15.536;2022-11-14T13:15:19;12.70;99.90
29687;DHT22;16599;47.078;15.536;2022-11-14T13:21:01;12.60;99.90
29687;DHT22;16599;47.078;15.536;2022-11-14T13:28:47;12.70;99.90
29687;DHT22;16599;47.078;15.536;2022-11-14T13:33:45;12.60;99.90
29687;DHT22;16599;47.078;15.536;2022-11-14T13:50:33;11.50;99.90
29687;DHT22;16599;47.078;15.536;2022-11-14T13:53:11;11.30;99.90
29687;DHT22;16599;47.078;15.536;2022-11-14T14:01:50;11.10;99.90
29687;DHT22;16599;47.078;15.536;2022-11-14T14:04:59;10.90;99.90
29687;DHT22;16599;47.078;15.536;2022-11-14T14:07:57;10.70;99.90
29687;DHT22;16599;47.078;15.536;2022-11-14T14:10:38;10.70;99.90
29687;DHT22;16599;47.078;15.536;2022-11-14T14:16:04;10.80;99.90
29687;DHT22;16599;47.078;15.536;2022-11-14T14:32:33;10.40;99.90
29687;DHT22;16599;47.078;15.536;2022-11-14T14:35:20;10.30;99.90
29687;DHT22;16599;47.078;15.536;2022-11-14T14:37:52;10.10;99.90
29687;DHT22;16599;47.078;15.536;2022-11-14T14:40:30;9.90;99.90
29687;DHT22;16599;47.078;15.536;2022-11-14T14:43:00;9.80;99.90
29687;DHT22;16599;47.078;15.536;2022-11-14T14:45:29;9.80;99.90
29687;DHT22;16599;47.078;15.536;2022-11-14T14:48:15;9.90;99.90
29687;DHT22;16599;47.078;15.536;2022-11-14T14:50:52;9.90;99.90
29687;DHT22;16599;47.078;15.536;2022-11-14T14:53:28;9.90;99.90
29687;DHT22;16599;47.078;15.536;2022-11-14T14:56:15;9.50;99.90
29687;DHT22;16599;47.078;15.536;2022-11-14T14:58:42;9.50;99.90
29687;DHT22;16599;47.078;15.536;2022-11-14T15:01:18;9.50;99.90
29687;DHT22;16599;47.078;15.536;2022-11-14T15:03:48;9.50;99.90
29687;DHT22;16599;47.078;15.536;2022-11-14T15:06:28;9.60;99.90
29687;DHT22;16599;47.078;15.536;2022-11-14T15:08:58;9.60;99.90
29687;DHT22;16599;47.078;15.536;2022-11-14T15:11:26;9.70;99.90
29687;DHT22;16599;47.078;15.536;2022-11-14T15:13:59;9.60;99.90
29687;DHT22;16599;47.078;15.536;2022-11-14T15:16:28;9.70;99.90
29687;DHT22;16599;47.078;15.536;2022-11-14T15:18:56;9.40;99.90
29687;DHT22;16599;47.078;15.536;2022-11-14T15:21:28;9.40;99.90
29687;DHT22;16599;47.078;15.536;2022-11-14T15:24:15;9.30;99.90
29687;DHT22;16599;47.078;15.536;2022-11-14T15:26:44;9.40;99.90
29687;DHT22;16599;47.078;15.536;2022-11-14T15:29:22;9.40;99.90
29687;DHT22;16599;47.078;15.536;2022-11-14T15:31:58;9.40;99.90
29687;DHT22;16599;47.078;15.536;2022-11-14T15:34:37;9.30;99.90
29687;DHT22;16599;47.078;15.536;2022-11-14T15:39:45;9.10;99.90
29687;DHT22;16599;47.078;15.536;2022-11-14T15:45:38;9.10;99.90
29687;DHT22;16599;47.078;15.536;2022-11-14T15:48:16;9.10;99.90
29687;DHT22;16599;47.078;15.536;2022-11-14T15:50:48;9.10;99.90
29687;DHT22;16599;47.078;15.536;2022-11-14T15:53:23;9.20;99.90
29687;DHT22;16599;47.078;15.536;2022-11-14T15:55:51;9.10;99.90
29687;DHT22;16599;47.078;15.536;2022-11-14T15:58:17;9.10;99.90
29687;DHT22;16599;47.078;15.536;2022-11-14T16:00:54;9.20;99.90
29687;DHT22;16599;47.078;15.536;2022-11-14T16:03:21;9.10;99.90
29687;DHT22;16599;47.078;15.536;2022-11-14T16:05:49;9.10;99.90
29687;DHT22;16599;47.078;15.536;2022-11-14T16:08:16;9.00;99.90
29687;DHT22;16599;47.078;15.536;2022-11-14T16:10:42;9.10;99.90
29687;DHT22;16599;47.078;15.536;2022-11-14T16:13:15;9.10;99.90
29687;DHT22;16599;47.078;15.536;2022-11-14T16:15:58;9.10;99.90
29687;DHT22;16599;47.078;15.536;2022-11-14T16:18:32;8.90;99.90
29687;DHT22;16599;47.078;15.536;2022-11-14T16:20:59;8.90;99.90
29687;DHT22;16599;47.078;15.536;2022-11-14T16:23:25;9.00;99.90
29687;DHT22;16599;47.078;15.536;2022-11-14T16:25:52;9.00;99.90
29687;DHT22;16599;47.078;15.536;2022-11-14T16:28:19;9.10;99.90
29687;DHT22;16599;47.078;15.536;2022-11-14T16:30:46;9.20;99.90
29687;DHT22;16599;47.078;15.536;2022-11-14T16:33:13;9.10;99.90
29687;DHT22;16599;47.078;15.536;2022-11-14T16:35:40;9.10;99.90
29687;DHT22;16599;47.078;15.536;2022-11-14T16:38:10;9.10;99.90
29687;DHT22;16599;47.078;15.536;2022-11-14T16:40:42;9.10;99.90
29687;DHT22;16599;47.078;15.536;2022-11-14T16:43:12;9.00;99.90
29687;DHT22;16599;47.078;15.536;2022-11-14T16:45:40;9.00;99.90
29687;DHT22;16599;47.078;15.536;2022-11-14T16:48:07;9.00;99.90
29687;DHT22;16599;47.078;15.536;2022-11-14T16:50:36;9.00;99.90
29687;DHT22;16599;47.078;15.536;2022-11-14T16:53:03;9.00;99.90
29687;DHT22;16599;47.078;15.536;2022-11-14T16:55:30;8.90;99.90
29687;DHT22;16599;47.078;15.536;2022-11-14T16:57:57;8.90;99.90
29687;DHT22;16599;47.078;15.536;2022-11-14T17:00:23;8.90;99.90
29687;DHT22;16599;47.078;15.536;2022-11-14T17:02:50;8.90;99.90
29687;DHT22;16599;47.078;15.536;2022-11-14T17:05:17;8.90;99.90
29687;DHT22;16599;47.078;15.536;2022-11-14T17:07:44;8.70;99.90
29687;DHT22;16599;47.078;15.536;2022-11-14T17:10:11;8.70;99.90
29687;DHT22;16599;47.078;15.536;2022-11-14T17:12:38;8.80;99.90
29687;DHT22;16599;47.078;15.536;2022-11-14T17:15:05;8.90;99.90
29687;DHT22;16599;47.078;15.536;2022-11-14T17:17:32;9.00;99.90
29687;DHT22;16599;47.078;15.536;2022-11-14T17:19:58;8.80;99.90
29687;DHT22;16599;47.078;15.536;2022-11-14T17:22:25;8.70;99.90
29687;DHT22;16599;47.078;15.536;2022-11-14T17:24:52;8.70;99.90
29687;DHT22;16599;47.078;15.536;2022-11-14T17:27:19;8.80;99.90
29687;DHT22;16599;47.078;15.536;2022-11-14T17:29:46;8.80;99.90
29687;DHT22;16599;47.078;15.536;2022-11-14T17:32:12;8.80;99.90
29687;DHT22;16599;47.078;15.536;2022-11-14T17:34:39;8.90;99.90
29687;DHT22;16599;47.078;15.536;2022-11-14T17:37:06;9.00;99.90
29687;DHT22;16599;47.078;15.536;2022-11-14T17:39:33;8.90;99.90
29687;DHT22;16599;47.078;15.536;2022-11-14T17:42:00;8.80;99.90
29687;DHT22;16599;47.078;15.536;2022-11-14T17:44:27;8.60;99.90
29687;DHT22;16599;47.078;15.536;2022-11-14T17:46:54;8.60;99.90